sensor_id;sensor_type;location;lat;lon;timestamp;pressure;altitude;pressure_sealevel;temperature;humidity
51297;BME280;37380;45.186;9.792;2023-06-04T00:00:16;100998.72;;;19.57;100.00
51297;BME280;37380;45.186;9.792;2023-06-04T00:03:10;100989.91;;;19.53;100.00
51297;BME280;37380;45.186;9.792;2023-06-04T00:05:37;101056.31;;;20.02;100.00
51297;BME280;37380;45.186;9.792;2023-06-04T00:08:04;100992.63;;;19.73;100.00
51297;BME280;37380;45.186;9.792;2023-06-04T00:10:31;100999.69;;;19.73;100.00
51297;BME280;37380;45.186;9.792;2023-06-04T00:13:00;101004.13;;;19.80;100.00
51297;BME280;37380;45.186;9.792;2023-06-04T00:15:27;101058.97;;;20.11;100.00
51297;BME280;37380;45.186;9.792;2023-06-04T00:17:54;100994.41;;;19.73;100.00
51297;BME280;37380;45.186;9.792;2023-06-04T00:20:23;100968.72;;;19.58;100.00
51297;BME280;37380;45.186;9.792;2023-06-04T00:22:50;101041.28;;;20.04;100.00
51297;BME280;37380;45.186;9.792;2023-06-04T00:25:17;101038.66;;;20.01;100.00
51297;BME280;37380;45.186;9.792;2023-06-04T00:27:44;101055.41;;;19.97;100.00
51297;BME280;37380;45.186;9.792;2023-06-04T00:30:12;100995.28;;;19.67;100.00
51297;BME280;37380;45.186;9.792;2023-06-04T00:32:39;100985.50;;;19.52;100.00
51297;BME280;37380;45.186;9.792;2023-06-04T00:35:13;101004.88;;;19.45;100.00
51297;BME280;37380;45.186;9.792;2023-06-04T00:38:07;100996.91;;;19.39;100.00
51297;BME280;37380;45.186;9.792;2023-06-04T00:40:34;100950.00;;;19.10;100.00
51297;BME280;37380;45.186;9.792;2023-06-04T00:43:01;101042.09;;;19.66;100.00
51297;BME280;37380;45.186;9.792;2023-06-04T00:45:28;100993.34;;;19.23;100.00
51297;BME280;37380;45.186;9.792;2023-06-04T00:47:58;100937.44;;;18.65;100.00
51297;BME280;37380;45.186;9.792;2023-06-04T00:50:25;100930.41;;;18.71;100.00
51297;BME280;37380;45.186;9.792;2023-06-04T00:52:52;101004.78;;;19.14;100.00
51297;BME280;37380;45.186;9.792;2023-06-04T00:55:20;101028.72;;;19.36;100.00
51297;BME280;37380;45.186;9.792;2023-06-04T00:57:54;101011.00;;;19.26;100.00
51297;BME280;37380;45.186;9.792;2023-06-04T01:00:56;101026.06;;;19.42;100.00
51297;BME280;37380;45.186;9.792;2023-06-04T01:03:55;100909.94;;;18.41;100.00
51297;BME280;37380;45.186;9.792;2023-06-04T01:06:33;101030.41;;;19.18;100.00
51297;BME280;37380;45.186;9.792;2023-06-04T01:09:03;101022.44;;;19.18;100.00
51297;BME280;37380;45.186;9.792;2023-06-04T01:11:38;100990.63;;;19.06;100.00
51297;BME280;37380;45.186;9.792;2023-06-04T01:14:07;100964.03;;;18.85;100.00
51297;BME280;37380;45.186;9.792;2023-06-04T01:22:38;101015.31;;;19.02;100.00
51297;BME280;37380;45.186;9.792;2023-06-04T01:25:14;101017.97;;;19.04;100.00
51297;BME280;37380;45.186;9.792;2023-06-04T01:27:51;100964.00;;;18.77;100.00
51297;BME280;37380;45.186;9.792;2023-06-04T01:30:33;101002.88;;;18.83;100.00
51297;BME280;37380;45.186;9.792;2023-06-04T01:33:02;100990.44;;;18.75;100.00
51297;BME280;37380;45.186;9.792;2023-06-04T01:35:36;101008.19;;;18.86;100.00
51297;BME280;37380;45.186;9.792;2023-06-04T01:38:30;100987.72;;;18.65;100.00
51297;BME280;37380;45.186;9.792;2023-06-04T01:40:57;101014.34;;;18.86;100.00
51297;BME280;37380;45.186;9.792;2023-06-04T01:43:28;100955.88;;;18.55;100.00
51297;BME280;37380;45.186;9.792;2023-06-04T01:45:55;100993.94;;;18.71;100.00
51297;BME280;37380;45.186;9.792;2023-06-04T01:48:23;100937.31;;;18.42;100.00
51297;BME280;37380;45.186;9.792;2023-06-04T01:50:50;100980.59;;;18.54;100.00
51297;BME280;37380;45.186;9.792;2023-06-04T01:53:18;100957.56;;;18.41;100.00
51297;BME280;37380;45.186;9.792;2023-06-04T01:55:46;100995.66;;;18.63;100.00
51297;BME280;37380;45.186;9.792;2023-06-04T01:58:22;100971.84;;;18.66;100.00
51297;BME280;37380;45.186;9.792;2023-06-04T02:01:23;100994.75;;;18.63;100.00
51297;BME280;37380;45.186;9.792;2023-06-04T02:04:17;100934.50;;;18.19;100.00
51297;BME280;37380;45.186;9.792;2023-06-04T02:06:44;100966.38;;;18.37;100.00
51297;BME280;37380;45.186;9.792;2023-06-04T02:09:11;100971.72;;;18.46;100.00
51297;BME280;37380;45.186;9.792;2023-06-04T02:11:38;101009.75;;;18.62;100.00
51297;BME280;37380;45.186;9.792;2023-06-04T02:14:05;101001.78;;;18.53;100.00
51297;BME280;37380;45.186;9.792;2023-06-04T02:16:32;101027.44;;;18.65;100.00
51297;BME280;37380;45.186;9.792;2023-06-04T02:18:59;100963.63;;;18.26;100.00
51297;BME280;37380;45.186;9.792;2023-06-04T02:21:27;101003.53;;;18.54;100.00
51297;BME280;37380;45.186;9.792;2023-06-04T02:23:54;101008.78;;;18.52;100.00
51297;BME280;37380;45.186;9.792;2023-06-04T02:26:21;100979.59;;;18.32;100.00
51297;BME280;37380;45.186;9.792;2023-06-04T02:28:50;100974.28;;;18.34;100.00
51297;BME280;37380;45.186;9.792;2023-06-04T02:31:17;101018.53;;;18.55;100.00
51297;BME280;37380;45.186;9.792;2023-06-04T02:33:51;100998.16;;;18.46;100.00
51297;BME280;37380;45.186;9.792;2023-06-04T02:36:38;101006.19;;;18.54;100.00
51297;BME280;37380;45.186;9.792;2023-06-04T02:39:12;101008.75;;;18.42;100.00
51297;BME280;37380;45.186;9.792;2023-06-04T02:42:06;101015.00;;;18.53;100.00
51297;BME280;37380;45.186;9.792;2023-06-04T02:44:33;101034.38;;;18.52;100.00
51297;BME280;37380;45.186;9.792;2023-06-04T02:47:01;100993.50;;;18.10;100.00
51297;BME280;37380;45.186;9.792;2023-06-04T02:49:28;100951.00;;;17.88;100.00
51297;BME280;37380;45.186;9.792;2023-06-04T02:51:55;101047.53;;;18.43;100.00
51297;BME280;37380;45.186;9.792;2023-06-04T02:54:22;100983.78;;;18.12;100.00
51297;BME280;37380;45.186;9.792;2023-06-04T02:56:56;101020.13;;;18.31;100.00
51297;BME280;37380;45.186;9.792;2023-06-04T02:59:50;101010.47;;;18.37;100.00
51297;BME280;37380;45.186;9.792;2023-06-04T03:02:18;101028.09;;;18.38;100.00
51297;BME280;37380;45.186;9.792;2023-06-04T03:04:45;101043.09;;;18.40;100.00
51297;BME280;37380;45.186;9.792;2023-06-04T03:07:14;101011.16;;;18.13;100.00
51297;BME280;37380;45.186;9.792;2023-06-04T03:09:42;101004.94;;;18.07;100.00
51297;BME280;37380;45.186;9.792;2023-06-04T03:12:10;100984.16;;;17.59;100.00
51297;BME280;37380;45.186;9.792;2023-06-04T03:14:38;101015.13;;;17.74;100.00
51297;BME280;37380;45.186;9.792;2023-06-04T03:17:05;101048.72;;;17.79;100.00
51297;BME280;37380;45.186;9.792;2023-06-04T03:19:38;100976.84;;;17.36;100.00
51297;BME280;37380;45.186;9.792;2023-06-04T03:22:06;101012.22;;;17.46;100.00
51297;BME280;37380;45.186;9.792;2023-06-04T03:24:36;101074.34;;;17.86;100.00
51297;BME280;37380;45.186;9.792;2023-06-04T03:27:03;101045.84;;;17.61;100.00
51297;BME280;37380;45.186;9.792;2023-06-04T03:29:32;101013.38;;;17.74;100.00
51297;BME280;37380;45.186;9.792;2023-06-04T03:32:01;101056.88;;;18.01;100.00
51297;BME280;37380;45.186;9.792;2023-06-04T03:34:36;100984.13;;;17.56;100.00
51297;BME280;37380;45.186;9.792;2023-06-04T03:37:37;101100.22;;;18.17;100.00
51297;BME280;37380;45.186;9.792;2023-06-04T03:40:31;101003.84;;;17.85;100.00
51297;BME280;37380;45.186;9.792;2023-06-04T03:42:58;101060.34;;;17.97;100.00
51297;BME280;37380;45.186;9.792;2023-06-04T03:45:30;101058.59;;;17.96;100.00
51297;BME280;37380;45.186;9.792;2023-06-04T03:47:57;101072.81;;;18.07;100.00
51297;BME280;37380;45.186;9.792;2023-06-04T03:50:26;101064.81;;;18.01;100.00
51297;BME280;37380;45.186;9.792;2023-06-04T03:52:54;101023.16;;;17.78;100.00
51297;BME280;37380;45.186;9.792;2023-06-04T03:55:22;101060.41;;;18.03;100.00
51297;BME280;37380;45.186;9.792;2023-06-04T03:57:57;101095.88;;;18.22;100.00
51297;BME280;37380;45.186;9.792;2023-06-04T04:00:54;101007.34;;;17.81;100.00
51297;BME280;37380;45.186;9.792;2023-06-04T04:03:23;101005.47;;;17.76;100.00
51297;BME280;37380;45.186;9.792;2023-06-04T04:05:50;101019.88;;;18.01;100.00
51297;BME280;37380;45.186;9.792;2023-06-04T04:08:18;101083.50;;;18.21;100.00
51297;BME280;37380;45.186;9.792;2023-06-04T04:10:48;101016.31;;;17.99;100.00
51297;BME280;37380;45.186;9.792;2023-06-04T04:13:15;101073.84;;;18.26;100.00
51297;BME280;37380;45.186;9.792;2023-06-04T04:15:42;101051.69;;;18.13;100.00
51297;BME280;37380;45.186;9.792;2023-06-04T04:18:10;101047.44;;;18.27;100.00
51297;BME280;37380;45.186;9.792;2023-06-04T04:20:39;101051.94;;;18.44;100.00
51297;BME280;37380;45.186;9.792;2023-06-04T04:23:09;101055.47;;;18.40;100.00
51297;BME280;37380;45.186;9.792;2023-06-04T04:25:39;101090.72;;;18.36;100.00
51297;BME280;37380;45.186;9.792;2023-06-04T04:28:07;101058.09;;;18.41;100.00
51297;BME280;37380;45.186;9.792;2023-06-04T04:30:36;101085.91;;;18.97;100.00
51297;BME280;37380;45.186;9.792;2023-06-04T04:33:05;101027.59;;;18.86;100.00
51297;BME280;37380;45.186;9.792;2023-06-04T04:35:57;101041.91;;;19.23;100.00
51297;BME280;37380;45.186;9.792;2023-06-04T04:38:52;101023.47;;;19.47;100.00
51297;BME280;37380;45.186;9.792;2023-06-04T04:41:28;101051.81;;;19.67;100.00
51297;BME280;37380;45.186;9.792;2023-06-04T04:44:02;101089.00;;;19.90;100.00
51297;BME280;37380;45.186;9.792;2023-06-04T04:46:30;101079.13;;;19.60;100.00
51297;BME280;37380;45.186;9.792;2023-06-04T04:48:58;101031.25;;;19.10;100.00
51297;BME280;37380;45.186;9.792;2023-06-04T04:51:24;101057.00;;;19.44;100.00
51297;BME280;37380;45.186;9.792;2023-06-04T04:53:53;101068.63;;;19.66;100.00
51297;BME280;37380;45.186;9.792;2023-06-04T04:56:29;101070.41;;;19.80;100.00
51297;BME280;37380;45.186;9.792;2023-06-04T04:59:30;101074.00;;;20.09;100.00
51297;BME280;37380;45.186;9.792;2023-06-04T05:02:31;101000.59;;;19.76;100.00
51297;BME280;37380;45.186;9.792;2023-06-04T05:05:04;101044.78;;;19.89;100.00
51297;BME280;37380;45.186;9.792;2023-06-04T05:07:32;101052.78;;;20.35;100.00
51297;BME280;37380;45.186;9.792;2023-06-04T05:10:00;101086.44;;;20.73;100.00
51297;BME280;37380;45.186;9.792;2023-06-04T05:12:30;101051.00;;;20.85;100.00
51297;BME280;37380;45.186;9.792;2023-06-04T05:15:00;101034.97;;;21.22;100.00
51297;BME280;37380;45.186;9.792;2023-06-04T05:17:27;101086.09;;;21.85;100.00
51297;BME280;37380;45.186;9.792;2023-06-04T05:20:00;101042.69;;;21.80;100.00
51297;BME280;37380;45.186;9.792;2023-06-04T05:22:42;101074.81;;;22.71;100.00
51297;BME280;37380;45.186;9.792;2023-06-04T05:25:11;101099.63;;;22.79;100.00
51297;BME280;37380;45.186;9.792;2023-06-04T05:27:39;101103.78;;;23.11;100.00
51297;BME280;37380;45.186;9.792;2023-06-04T05:30:10;101101.50;;;22.68;100.00
51297;BME280;37380;45.186;9.792;2023-06-04T05:32:38;101092.63;;;22.69;100.00
51297;BME280;37380;45.186;9.792;2023-06-04T05:35:18;101050.47;;;23.11;100.00
51297;BME280;37380;45.186;9.792;2023-06-04T05:38:05;101101.69;;;24.07;100.00
51297;BME280;37380;45.186;9.792;2023-06-04T05:40:32;101088.94;;;24.28;100.00
51297;BME280;37380;45.186;9.792;2023-06-04T05:43:06;101108.63;;;24.21;100.00
51297;BME280;37380;45.186;9.792;2023-06-04T05:46:07;101109.53;;;24.77;100.00
51297;BME280;37380;45.186;9.792;2023-06-04T05:49:08;101077.56;;;23.47;100.00
51297;BME280;37380;45.186;9.792;2023-06-04T05:51:43;101105.31;;;25.57;100.00
51297;BME280;37380;45.186;9.792;2023-06-04T05:54:10;101088.88;;;25.33;100.00
51297;BME280;37380;45.186;9.792;2023-06-04T05:56:47;101105.31;;;24.62;100.00
51297;BME280;37380;45.186;9.792;2023-06-04T05:59:34;101119.72;;;25.51;100.00
51297;BME280;37380;45.186;9.792;2023-06-04T06:02:04;101082.53;;;24.38;100.00
51297;BME280;37380;45.186;9.792;2023-06-04T06:04:32;101110.72;;;23.26;100.00
51297;BME280;37380;45.186;9.792;2023-06-04T06:06:59;101114.22;;;24.04;100.00
51297;BME280;37380;45.186;9.792;2023-06-04T06:09:26;101136.84;;;23.77;100.00
51297;BME280;37380;45.186;9.792;2023-06-04T06:11:54;101099.97;;;25.12;100.00
51297;BME280;37380;45.186;9.792;2023-06-04T06:14:21;101124.44;;;25.83;100.00
51297;BME280;37380;45.186;9.792;2023-06-04T06:16:57;101113.28;;;25.61;100.00
51297;BME280;37380;45.186;9.792;2023-06-04T06:19:58;101102.25;;;25.33;100.00
51297;BME280;37380;45.186;9.792;2023-06-04T06:23:07;101086.31;;;23.60;100.00
51297;BME280;37380;45.186;9.792;2023-06-04T06:25:45;101140.63;;;23.54;100.00
51297;BME280;37380;45.186;9.792;2023-06-04T06:28:18;101110.94;;;23.82;100.00
51297;BME280;37380;45.186;9.792;2023-06-04T06:30:46;101139.91;;;24.11;100.00
51297;BME280;37380;45.186;9.792;2023-06-04T06:33:14;101086.19;;;23.70;100.00
51297;BME280;37380;45.186;9.792;2023-06-04T06:35:41;101064.66;;;23.12;100.00
51297;BME280;37380;45.186;9.792;2023-06-04T06:38:08;101126.25;;;22.79;100.00
51297;BME280;37380;45.186;9.792;2023-06-04T06:40:35;101060.53;;;22.81;100.00
51297;BME280;37380;45.186;9.792;2023-06-04T06:43:02;101093.81;;;22.31;100.00
51297;BME280;37380;45.186;9.792;2023-06-04T06:45:29;101082.72;;;21.53;100.00
51297;BME280;37380;45.186;9.792;2023-06-04T06:48:03;101107.88;;;22.50;100.00
51297;BME280;37380;45.186;9.792;2023-06-04T06:50:51;101114.47;;;21.83;100.00
51297;BME280;37380;45.186;9.792;2023-06-04T06:53:18;101110.25;;;22.82;100.00
51297;BME280;37380;45.186;9.792;2023-06-04T06:55:52;101092.50;;;22.80;100.00
51297;BME280;37380;45.186;9.792;2023-06-04T06:58:53;101146.34;;;23.17;100.00
51297;BME280;37380;45.186;9.792;2023-06-04T07:01:54;101134.47;;;24.17;100.00
51297;BME280;37380;45.186;9.792;2023-06-04T07:04:29;101110.25;;;22.82;100.00
51297;BME280;37380;45.186;9.792;2023-06-04T07:07:23;101085.34;;;21.62;100.00
51297;BME280;37380;45.186;9.792;2023-06-04T07:09:57;101149.50;;;22.62;100.00
51297;BME280;37380;45.186;9.792;2023-06-04T07:12:58;101109.88;;;22.10;100.00
51297;BME280;37380;45.186;9.792;2023-06-04T07:15:53;101166.13;;;22.89;100.00
51297;BME280;37380;45.186;9.792;2023-06-04T07:18:20;101188.31;;;22.94;100.00
51297;BME280;37380;45.186;9.792;2023-06-04T07:20:47;101116.19;;;21.97;100.00
51297;BME280;37380;45.186;9.792;2023-06-04T07:23:14;101104.28;;;22.51;100.00
51297;BME280;37380;45.186;9.792;2023-06-04T07:25:41;101074.53;;;23.05;100.00
51297;BME280;37380;45.186;9.792;2023-06-04T07:28:08;101154.06;;;23.45;100.00
51297;BME280;37380;45.186;9.792;2023-06-04T07:30:35;101184.22;;;23.50;100.00
51297;BME280;37380;45.186;9.792;2023-06-04T07:33:03;101148.16;;;23.94;100.00
51297;BME280;37380;45.186;9.792;2023-06-04T07:35:30;101160.38;;;24.12;100.00
51297;BME280;37380;45.186;9.792;2023-06-04T07:37:57;101178.44;;;24.56;100.00
51297;BME280;37380;45.186;9.792;2023-06-04T07:40:25;101125.63;;;24.13;100.00
51297;BME280;37380;45.186;9.792;2023-06-04T07:42:58;101166.69;;;24.67;100.00
51297;BME280;37380;45.186;9.792;2023-06-04T07:45:59;101164.66;;;24.24;100.00
51297;BME280;37380;45.186;9.792;2023-06-04T07:48:53;101160.50;;;24.01;100.00
51297;BME280;37380;45.186;9.792;2023-06-04T07:51:20;101128.53;;;23.98;100.00
51297;BME280;37380;45.186;9.792;2023-06-04T07:53:47;101165.31;;;24.39;100.00
51297;BME280;37380;45.186;9.792;2023-06-04T07:56:21;101182.91;;;24.54;100.00
51297;BME280;37380;45.186;9.792;2023-06-04T07:59:15;101187.94;;;25.75;100.00
51297;BME280;37380;45.186;9.792;2023-06-04T08:01:42;101076.47;;;26.50;88.90
51297;BME280;37380;45.186;9.792;2023-06-04T08:04:09;101138.03;;;27.23;85.82
51297;BME280;37380;45.186;9.792;2023-06-04T08:06:37;101179.72;;;26.99;87.43
51297;BME280;37380;45.186;9.792;2023-06-04T08:09:06;101169.34;;;26.11;94.60
51297;BME280;37380;45.186;9.792;2023-06-04T08:11:36;101162.47;;;25.04;100.00
51297;BME280;37380;45.186;9.792;2023-06-04T08:14:03;101160.00;;;24.38;100.00
51297;BME280;37380;45.186;9.792;2023-06-04T08:16:32;101198.00;;;25.14;100.00
51297;BME280;37380;45.186;9.792;2023-06-04T08:19:18;101184.63;;;23.95;100.00
51297;BME280;37380;45.186;9.792;2023-06-04T08:21:57;101199.28;;;23.56;100.00
51297;BME280;37380;45.186;9.792;2023-06-04T08:24:38;101187.53;;;24.40;100.00
51297;BME280;37380;45.186;9.792;2023-06-04T08:27:25;101141.09;;;24.52;100.00
51297;BME280;37380;45.186;9.792;2023-06-04T08:30:12;101167.47;;;24.13;100.00
51297;BME280;37380;45.186;9.792;2023-06-04T08:32:59;101171.13;;;24.68;100.00
51297;BME280;37380;45.186;9.792;2023-06-04T08:35:33;101183.31;;;24.85;100.00
51297;BME280;37380;45.186;9.792;2023-06-04T08:38:00;101078.78;;;23.94;100.00
51297;BME280;37380;45.186;9.792;2023-06-04T08:40:27;101203.47;;;24.51;100.00
51297;BME280;37380;45.186;9.792;2023-06-04T08:43:02;101170.09;;;25.29;100.00
51297;BME280;37380;45.186;9.792;2023-06-04T08:46:05;101170.59;;;25.49;98.04
51297;BME280;37380;45.186;9.792;2023-06-04T08:49:02;101188.81;;;24.14;100.00
51297;BME280;37380;45.186;9.792;2023-06-04T08:51:35;101137.03;;;24.26;100.00
51297;BME280;37380;45.186;9.792;2023-06-04T08:54:08;101194.25;;;25.71;100.00
51297;BME280;37380;45.186;9.792;2023-06-04T08:56:44;101160.56;;;25.14;100.00
51297;BME280;37380;45.186;9.792;2023-06-04T08:59:39;101191.38;;;25.37;100.00
51297;BME280;37380;45.186;9.792;2023-06-04T09:02:06;101184.66;;;25.59;94.98
51297;BME280;37380;45.186;9.792;2023-06-04T09:04:42;101198.84;;;26.48;91.20
51297;BME280;37380;45.186;9.792;2023-06-04T09:07:39;101148.56;;;26.22;92.58
51297;BME280;37380;45.186;9.792;2023-06-04T09:10:09;101166.78;;;27.17;87.09
51297;BME280;37380;45.186;9.792;2023-06-04T09:12:43;101190.84;;;27.20;85.25
51297;BME280;37380;45.186;9.792;2023-06-04T09:15:13;101146.25;;;25.62;91.90
51297;BME280;37380;45.186;9.792;2023-06-04T09:17:40;101144.19;;;26.18;91.67
51297;BME280;37380;45.186;9.792;2023-06-04T09:20:08;101180.63;;;26.24;92.49
51297;BME280;37380;45.186;9.792;2023-06-04T09:22:45;101195.25;;;27.22;88.08
51297;BME280;37380;45.186;9.792;2023-06-04T09:25:23;101187.88;;;26.60;89.95
51297;BME280;37380;45.186;9.792;2023-06-04T09:28:29;101176.31;;;27.61;82.97
51297;BME280;37380;45.186;9.792;2023-06-04T09:31:23;101151.41;;;26.89;87.06
51297;BME280;37380;45.186;9.792;2023-06-04T09:33:53;101117.13;;;26.30;88.11
51297;BME280;37380;45.186;9.792;2023-06-04T09:36:20;101130.34;;;25.97;94.53
51297;BME280;37380;45.186;9.792;2023-06-04T09:38:48;101133.22;;;26.68;88.29
51297;BME280;37380;45.186;9.792;2023-06-04T09:41:17;101172.34;;;27.74;82.22
51297;BME280;37380;45.186;9.792;2023-06-04T09:44:00;101185.00;;;28.30;75.38
51297;BME280;37380;45.186;9.792;2023-06-04T09:46:29;101170.31;;;27.20;83.98
51297;BME280;37380;45.186;9.792;2023-06-04T09:49:02;101122.63;;;27.61;81.83
51297;BME280;37380;45.186;9.792;2023-06-04T09:51:30;101172.00;;;26.87;83.67
51297;BME280;37380;45.186;9.792;2023-06-04T09:53:59;101158.47;;;25.30;92.80
51297;BME280;37380;45.186;9.792;2023-06-04T09:56:39;101148.63;;;26.94;85.67
51297;BME280;37380;45.186;9.792;2023-06-04T09:59:43;101127.38;;;26.49;94.09
51297;BME280;37380;45.186;9.792;2023-06-04T10:02:30;101136.50;;;26.40;89.48
51297;BME280;37380;45.186;9.792;2023-06-04T10:04:58;101160.34;;;26.90;86.96
51297;BME280;37380;45.186;9.792;2023-06-04T10:07:26;101163.69;;;26.23;88.52
51297;BME280;37380;45.186;9.792;2023-06-04T10:09:53;101073.03;;;26.79;84.93
51297;BME280;37380;45.186;9.792;2023-06-04T10:12:25;101061.59;;;26.35;85.71
51297;BME280;37380;45.186;9.792;2023-06-04T10:15:02;101123.31;;;27.68;82.70
51297;BME280;37380;45.186;9.792;2023-06-04T10:17:32;101124.06;;;26.75;87.45
51297;BME280;37380;45.186;9.792;2023-06-04T10:20:01;101148.91;;;26.81;82.84
51297;BME280;37380;45.186;9.792;2023-06-04T10:22:32;101088.09;;;25.70;89.36
51297;BME280;37380;45.186;9.792;2023-06-04T10:25:00;100949.84;;;25.32;86.40
51297;BME280;37380;45.186;9.792;2023-06-04T10:27:36;101093.50;;;26.09;89.39
51297;BME280;37380;45.186;9.792;2023-06-04T10:30:30;101150.13;;;25.48;94.18
51297;BME280;37380;45.186;9.792;2023-06-04T10:32:58;101069.41;;;25.68;89.43
51297;BME280;37380;45.186;9.792;2023-06-04T10:35:35;101153.88;;;25.80;92.25
51297;BME280;37380;45.186;9.792;2023-06-04T10:38:11;101137.38;;;25.60;89.98
51297;BME280;37380;45.186;9.792;2023-06-04T10:41:15;101133.81;;;26.03;88.21
51297;BME280;37380;45.186;9.792;2023-06-04T10:44:16;101140.34;;;27.03;83.37
51297;BME280;37380;45.186;9.792;2023-06-04T10:46:44;101103.13;;;26.56;79.09
51297;BME280;37380;45.186;9.792;2023-06-04T10:49:12;101102.72;;;26.70;84.12
51297;BME280;37380;45.186;9.792;2023-06-04T10:51:39;101138.03;;;27.23;84.70
51297;BME280;37380;45.186;9.792;2023-06-04T10:54:07;101085.00;;;28.20;77.44
51297;BME280;37380;45.186;9.792;2023-06-04T10:56:41;101069.94;;;27.27;80.87
51297;BME280;37380;45.186;9.792;2023-06-04T10:59:58;101095.06;;;27.86;78.02
51297;BME280;37380;45.186;9.792;2023-06-04T11:02:56;101116.03;;;28.31;75.96
51297;BME280;37380;45.186;9.792;2023-06-04T11:05:37;101137.13;;;28.98;71.76
51297;BME280;37380;45.186;9.792;2023-06-04T11:08:05;101074.72;;;27.79;73.75
51297;BME280;37380;45.186;9.792;2023-06-04T11:10:40;101079.69;;;28.47;73.75
51297;BME280;37380;45.186;9.792;2023-06-04T11:13:07;101128.94;;;28.48;73.25
51297;BME280;37380;45.186;9.792;2023-06-04T11:15:42;101075.88;;;27.98;71.92
51297;BME280;37380;45.186;9.792;2023-06-04T11:18:18;101137.22;;;28.41;75.83
51297;BME280;37380;45.186;9.792;2023-06-04T11:20:57;101138.81;;;28.74;72.03
51297;BME280;37380;45.186;9.792;2023-06-04T11:23:24;101078.34;;;27.15;82.09
51297;BME280;37380;45.186;9.792;2023-06-04T11:25:58;101128.38;;;27.15;80.77
51297;BME280;37380;45.186;9.792;2023-06-04T11:28:52;101078.31;;;25.69;87.83
51297;BME280;37380;45.186;9.792;2023-06-04T11:31:19;101118.72;;;27.09;82.76
51297;BME280;37380;45.186;9.792;2023-06-04T11:33:47;101124.19;;;27.04;87.68
51297;BME280;37380;45.186;9.792;2023-06-04T11:36:29;101057.44;;;26.24;81.30
51297;BME280;37380;45.186;9.792;2023-06-04T11:39:01;101086.31;;;27.17;78.38
51297;BME280;37380;45.186;9.792;2023-06-04T11:41:30;101112.41;;;26.77;82.09
51297;BME280;37380;45.186;9.792;2023-06-04T11:44:01;101077.97;;;27.27;78.58
51297;BME280;37380;45.186;9.792;2023-06-04T11:46:28;101108.84;;;26.39;80.67
51297;BME280;37380;45.186;9.792;2023-06-04T11:49:02;101106.69;;;26.18;82.26
51297;BME280;37380;45.186;9.792;2023-06-04T11:51:56;101054.09;;;26.14;86.17
51297;BME280;37380;45.186;9.792;2023-06-04T11:54:24;101081.03;;;26.08;86.64
51297;BME280;37380;45.186;9.792;2023-06-04T11:56:57;101074.81;;;26.43;86.81
51297;BME280;37380;45.186;9.792;2023-06-04T11:59:51;101039.47;;;25.91;86.37
51297;BME280;37380;45.186;9.792;2023-06-04T12:02:19;101036.50;;;26.04;84.46
51297;BME280;37380;45.186;9.792;2023-06-04T12:04:50;101030.19;;;25.67;85.44
51297;BME280;37380;45.186;9.792;2023-06-04T12:07:21;101026.78;;;26.35;81.75
51297;BME280;37380;45.186;9.792;2023-06-04T12:09:51;101012.00;;;25.83;83.76
51297;BME280;37380;45.186;9.792;2023-06-04T12:12:22;101062.06;;;25.77;86.37
51297;BME280;37380;45.186;9.792;2023-06-04T12:14:58;101077.00;;;26.27;84.07
51297;BME280;37380;45.186;9.792;2023-06-04T12:17:25;101041.41;;;26.22;83.34
51297;BME280;37380;45.186;9.792;2023-06-04T12:19:52;101074.34;;;26.27;84.16
51297;BME280;37380;45.186;9.792;2023-06-04T12:22:19;101044.16;;;26.89;89.86
51297;BME280;37380;45.186;9.792;2023-06-04T12:24:48;101058.66;;;27.15;76.15
51297;BME280;37380;45.186;9.792;2023-06-04T12:27:15;100993.56;;;27.39;76.55
51297;BME280;37380;45.186;9.792;2023-06-04T12:29:42;101054.78;;;26.94;77.55
51297;BME280;37380;45.186;9.792;2023-06-04T12:32:20;101035.63;;;26.73;78.64
51297;BME280;37380;45.186;9.792;2023-06-04T12:34:47;101041.75;;;26.08;78.33
51297;BME280;37380;45.186;9.792;2023-06-04T12:37:15;101031.63;;;26.21;78.67
51297;BME280;37380;45.186;9.792;2023-06-04T12:39:42;101019.97;;;26.22;79.07
51297;BME280;37380;45.186;9.792;2023-06-04T12:42:17;101039.31;;;27.02;78.53
51297;BME280;37380;45.186;9.792;2023-06-04T12:45:21;100988.53;;;26.96;77.88
51297;BME280;37380;45.186;9.792;2023-06-04T12:48:22;100985.19;;;26.87;76.17
51297;BME280;37380;45.186;9.792;2023-06-04T12:51:17;101017.53;;;27.14;74.87
51297;BME280;37380;45.186;9.792;2023-06-04T12:53:50;101040.38;;;27.29;77.38
51297;BME280;37380;45.186;9.792;2023-06-04T12:56:51;100983.44;;;26.88;79.96
51297;BME280;37380;45.186;9.792;2023-06-04T12:59:52;100997.31;;;26.35;80.51
51297;BME280;37380;45.186;9.792;2023-06-04T13:02:53;101025.75;;;26.77;81.08
51297;BME280;37380;45.186;9.792;2023-06-04T13:05:32;100963.41;;;26.34;76.92
51297;BME280;37380;45.186;9.792;2023-06-04T13:08:00;101038.25;;;27.09;76.09
51297;BME280;37380;45.186;9.792;2023-06-04T13:10:28;100958.91;;;25.63;83.48
51297;BME280;37380;45.186;9.792;2023-06-04T13:12:55;100977.81;;;26.30;81.88
51297;BME280;37380;45.186;9.792;2023-06-04T13:15:22;100979.94;;;26.52;78.20
51297;BME280;37380;45.186;9.792;2023-06-04T13:17:55;101029.91;;;26.87;77.88
51297;BME280;37380;45.186;9.792;2023-06-04T13:20:49;101032.38;;;26.95;76.10
51297;BME280;37380;45.186;9.792;2023-06-04T13:23:16;101031.38;;;26.66;78.49
51297;BME280;37380;45.186;9.792;2023-06-04T13:25:44;101024.78;;;27.10;80.14
51297;BME280;37380;45.186;9.792;2023-06-04T13:28:11;101014.03;;;27.43;73.13